sensor_id;sensor_type;location;lat;lon;timestamp;P1;durP1;ratioP1;P2;durP2;ratioP2
11921;SDS011;6021;51.182;3.160;2023-03-25T00:01:33;11.70;;;2.90;;
11921;SDS011;6021;51.182;3.160;2023-03-25T00:04:03;10.87;;;2.90;;
11921;SDS011;6021;51.182;3.160;2023-03-25T00:06:31;16.40;;;3.07;;
11921;SDS011;6021;51.182;3.160;2023-03-25T00:09:00;19.60;;;3.80;;
11921;SDS011;6021;51.182;3.160;2023-03-25T00:11:29;14.63;;;3.13;;
11921;SDS011;6021;51.182;3.160;2023-03-25T00:13:58;15.73;;;3.43;;
11921;SDS011;6021;51.182;3.160;2023-03-25T00:16:27;19.80;;;3.90;;
11921;SDS011;6021;51.182;3.160;2023-03-25T00:18:55;15.23;;;3.20;;
11921;SDS011;6021;51.182;3.160;2023-03-25T00:21:28;15.67;;;3.60;;
11921;SDS011;6021;51.182;3.160;2023-03-25T00:24:02;20.30;;;3.53;;
11921;SDS011;6021;51.182;3.160;2023-03-25T00:26:31;17.83;;;3.77;;
11921;SDS011;6021;51.182;3.160;2023-03-25T00:28:59;17.50;;;3.73;;
11921;SDS011;6021;51.182;3.160;2023-03-25T00:31:27;18.53;;;3.97;;
11921;SDS011;6021;51.182;3.160;2023-03-25T00:33:56;17.23;;;3.50;;
11921;SDS011;6021;51.182;3.160;2023-03-25T00:36:25;16.03;;;3.50;;
11921;SDS011;6021;51.182;3.160;2023-03-25T00:38:53;23.50;;;4.43;;
11921;SDS011;6021;51.182;3.160;2023-03-25T00:41:22;22.00;;;4.20;;
11921;SDS011;6021;51.182;3.160;2023-03-25T00:43:53;20.17;;;3.87;;
11921;SDS011;6021;51.182;3.160;2023-03-25T00:46:23;17.80;;;3.87;;
11921;SDS011;6021;51.182;3.160;2023-03-25T00:48:54;21.80;;;4.13;;
11921;SDS011;6021;51.182;3.160;2023-03-25T00:51:24;14.97;;;3.70;;
11921;SDS011;6021;51.182;3.160;2023-03-25T00:53:54;18.57;;;4.23;;
11921;SDS011;6021;51.182;3.160;2023-03-25T00:56:26;17.83;;;4.30;;
11921;SDS011;6021;51.182;3.160;2023-03-25T00:58:55;16.40;;;3.67;;
11921;SDS011;6021;51.182;3.160;2023-03-25T01:01:25;16.73;;;3.77;;
11921;SDS011;6021;51.182;3.160;2023-03-25T01:03:55;15.30;;;4.07;;
11921;SDS011;6021;51.182;3.160;2023-03-25T01:06:28;19.93;;;4.33;;
11921;SDS011;6021;51.182;3.160;2023-03-25T01:09:02;17.63;;;4.30;;
11921;SDS011;6021;51.182;3.160;2023-03-25T01:11:32;19.43;;;4.10;;
11921;SDS011;6021;51.182;3.160;2023-03-25T01:14:07;18.97;;;4.47;;
11921;SDS011;6021;51.182;3.160;2023-03-25T01:16:35;24.83;;;4.67;;
11921;SDS011;6021;51.182;3.160;2023-03-25T01:19:03;17.90;;;3.63;;
11921;SDS011;6021;51.182;3.160;2023-03-25T01:21:32;23.40;;;4.20;;
11921;SDS011;6021;51.182;3.160;2023-03-25T01:24:05;19.43;;;4.10;;
11921;SDS011;6021;51.182;3.160;2023-03-25T01:26:34;16.20;;;3.90;;
11921;SDS011;6021;51.182;3.160;2023-03-25T01:29:03;19.13;;;4.07;;
11921;SDS011;6021;51.182;3.160;2023-03-25T01:31:31;20.90;;;4.43;;
11921;SDS011;6021;51.182;3.160;2023-03-25T01:34:00;20.27;;;4.73;;
11921;SDS011;6021;51.182;3.160;2023-03-25T01:36:28;17.37;;;4.10;;
11921;SDS011;6021;51.182;3.160;2023-03-25T01:38:57;23.37;;;3.90;;
11921;SDS011;6021;51.182;3.160;2023-03-25T01:41:27;21.03;;;4.30;;
11921;SDS011;6021;51.182;3.160;2023-03-25T01:44:04;18.13;;;4.00;;
11921;SDS011;6021;51.182;3.160;2023-03-25T01:46:50;18.03;;;3.90;;
11921;SDS011;6021;51.182;3.160;2023-03-25T01:49:24;20.00;;;4.00;;
11921;SDS011;6021;51.182;3.160;2023-03-25T01:52:06;18.57;;;4.10;;
11921;SDS011;6021;51.182;3.160;2023-03-25T01:54:41;12.40;;;3.67;;
11921;SDS011;6021;51.182;3.160;2023-03-25T01:57:11;20.33;;;4.40;;
11921;SDS011;6021;51.182;3.160;2023-03-25T01:59:44;20.07;;;4.87;;
11921;SDS011;6021;51.182;3.160;2023-03-25T02:02:16;19.10;;;4.03;;
11921;SDS011;6021;51.182;3.160;2023-03-25T02:07:25;19.40;;;4.27;;
11921;SDS011;6021;51.182;3.160;2023-03-25T02:10:04;18.83;;;4.00;;
11921;SDS011;6021;51.182;3.160;2023-03-25T02:12:35;17.13;;;3.70;;
11921;SDS011;6021;51.182;3.160;2023-03-25T02:15:06;23.67;;;3.90;;
11921;SDS011;6021;51.182;3.160;2023-03-25T02:18:25;19.47;;;4.00;;
11921;SDS011;6021;51.182;3.160;2023-03-25T02:32:39;15.43;;;3.90;;
11921;SDS011;6021;51.182;3.160;2023-03-25T02:41:24;16.57;;;3.40;;
11921;SDS011;6021;51.182;3.160;2023-03-25T02:44:06;17.73;;;3.33;;
11921;SDS011;6021;51.182;3.160;2023-03-25T02:46:48;16.17;;;3.60;;
11921;SDS011;6021;51.182;3.160;2023-03-25T02:49:26;13.10;;;3.33;;
11921;SDS011;6021;51.182;3.160;2023-03-25T02:52:02;14.33;;;3.70;;
11921;SDS011;6021;51.182;3.160;2023-03-25T02:54:40;14.13;;;3.30;;
11921;SDS011;6021;51.182;3.160;2023-03-25T02:57:17;13.23;;;3.67;;
11921;SDS011;6021;51.182;3.160;2023-03-25T02:59:52;14.43;;;3.70;;
11921;SDS011;6021;51.182;3.160;2023-03-25T03:02:26;13.80;;;3.33;;
11921;SDS011;6021;51.182;3.160;2023-03-25T03:05:18;14.00;;;3.90;;
11921;SDS011;6021;51.182;3.160;2023-03-25T03:07:36;15.47;;;3.60;;
11921;SDS011;6021;51.182;3.160;2023-03-25T03:10:09;14.97;;;3.60;;
11921;SDS011;6021;51.182;3.160;2023-03-25T03:21:22;16.13;;;3.10;;
11921;SDS011;6021;51.182;3.160;2023-03-25T03:24:01;17.97;;;3.90;;
11921;SDS011;6021;51.182;3.160;2023-03-25T03:26:48;13.33;;;3.57;;
11921;SDS011;6021;51.182;3.160;2023-03-25T03:29:31;17.50;;;4.13;;
11921;SDS011;6021;51.182;3.160;2023-03-25T03:32:03;13.40;;;3.20;;
11921;SDS011;6021;51.182;3.160;2023-03-25T03:34:33;14.17;;;3.37;;
11921;SDS011;6021;51.182;3.160;2023-03-25T03:37:18;13.30;;;3.33;;
11921;SDS011;6021;51.182;3.160;2023-03-25T03:39:43;13.90;;;3.30;;
11921;SDS011;6021;51.182;3.160;2023-03-25T03:45:11;11.57;;;2.90;;
11921;SDS011;6021;51.182;3.160;2023-03-25T03:47:48;13.63;;;2.80;;
11921;SDS011;6021;51.182;3.160;2023-03-25T03:50:22;11.77;;;2.87;;
11921;SDS011;6021;51.182;3.160;2023-03-25T03:52:58;13.27;;;3.03;;
11921;SDS011;6021;51.182;3.160;2023-03-25T03:55:45;14.00;;;3.07;;
11921;SDS011;6021;51.182;3.160;2023-03-25T03:58:18;13.20;;;2.73;;
11921;SDS011;6021;51.182;3.160;2023-03-25T04:00:57;12.83;;;2.77;;
11921;SDS011;6021;51.182;3.160;2023-03-25T04:03:42;13.70;;;2.80;;
11921;SDS011;6021;51.182;3.160;2023-03-25T04:09:29;14.50;;;3.17;;
11921;SDS011;6021;51.182;3.160;2023-03-25T04:12:12;13.27;;;2.77;;
11921;SDS011;6021;51.182;3.160;2023-03-25T04:14:43;13.07;;;2.80;;
11921;SDS011;6021;51.182;3.160;2023-03-25T04:17:12;11.20;;;2.97;;
11921;SDS011;6021;51.182;3.160;2023-03-25T04:19:43;12.03;;;2.93;;
11921;SDS011;6021;51.182;3.160;2023-03-25T04:22:18;11.47;;;2.50;;
11921;SDS011;6021;51.182;3.160;2023-03-25T04:24:47;14.00;;;3.00;;
11921;SDS011;6021;51.182;3.160;2023-03-25T04:27:22;12.17;;;2.70;;
11921;SDS011;6021;51.182;3.160;2023-03-25T04:29:58;16.70;;;3.53;;
11921;SDS011;6021;51.182;3.160;2023-03-25T04:32:30;14.63;;;3.63;;
11921;SDS011;6021;51.182;3.160;2023-03-25T04:34:59;16.47;;;3.30;;
11921;SDS011;6021;51.182;3.160;2023-03-25T04:37:33;16.30;;;3.53;;
11921;SDS011;6021;51.182;3.160;2023-03-25T04:40:07;15.93;;;3.90;;
11921;SDS011;6021;51.182;3.160;2023-03-25T04:42:39;14.98;;;3.20;;
11921;SDS011;6021;51.182;3.160;2023-03-25T04:45:15;16.43;;;3.50;;
11921;SDS011;6021;51.182;3.160;2023-03-25T04:47:47;13.17;;;3.67;;
11921;SDS011;6021;51.182;3.160;2023-03-25T04:50:23;14.50;;;3.30;;
11921;SDS011;6021;51.182;3.160;2023-03-25T04:52:57;15.37;;;3.33;;
11921;SDS011;6021;51.182;3.160;2023-03-25T04:55:30;14.30;;;3.37;;
11921;SDS011;6021;51.182;3.160;2023-03-25T04:58:08;15.97;;;3.47;;
11921;SDS011;6021;51.182;3.160;2023-03-25T05:00:41;15.25;;;4.12;;
11921;SDS011;6021;51.182;3.160;2023-03-25T05:03:17;18.67;;;3.63;;
11921;SDS011;6021;51.182;3.160;2023-03-25T05:05:57;16.60;;;3.17;;
11921;SDS011;6021;51.182;3.160;2023-03-25T05:08:33;14.73;;;3.47;;
11921;SDS011;6021;51.182;3.160;2023-03-25T05:11:15;20.83;;;3.60;;
11921;SDS011;6021;51.182;3.160;2023-03-25T05:13:49;16.60;;;3.70;;
11921;SDS011;6021;51.182;3.160;2023-03-25T05:16:25;17.47;;;3.93;;
11921;SDS011;6021;51.182;3.160;2023-03-25T05:18:57;16.90;;;3.93;;
11921;SDS011;6021;51.182;3.160;2023-03-25T05:21:35;14.53;;;3.17;;
11921;SDS011;6021;51.182;3.160;2023-03-25T05:24:09;16.57;;;3.60;;
11921;SDS011;6021;51.182;3.160;2023-03-25T05:26:47;16.57;;;3.87;;
11921;SDS011;6021;51.182;3.160;2023-03-25T05:29:18;17.77;;;3.33;;
11921;SDS011;6021;51.182;3.160;2023-03-25T05:37:13;18.83;;;3.73;;
11921;SDS011;6021;51.182;3.160;2023-03-25T05:39:45;17.30;;;3.40;;
11921;SDS011;6021;51.182;3.160;2023-03-25T05:42:16;21.47;;;3.77;;
11921;SDS011;6021;51.182;3.160;2023-03-25T05:44:51;15.60;;;3.40;;
11921;SDS011;6021;51.182;3.160;2023-03-25T05:47:21;15.20;;;3.17;;
11921;SDS011;6021;51.182;3.160;2023-03-25T05:49:52;18.27;;;3.70;;
11921;SDS011;6021;51.182;3.160;2023-03-25T05:52:26;15.97;;;3.73;;
11921;SDS011;6021;51.182;3.160;2023-03-25T05:55:04;19.70;;;3.63;;
11921;SDS011;6021;51.182;3.160;2023-03-25T05:57:39;15.43;;;3.37;;
11921;SDS011;6021;51.182;3.160;2023-03-25T06:00:14;16.20;;;3.80;;
11921;SDS011;6021;51.182;3.160;2023-03-25T06:02:46;17.83;;;3.80;;
11921;SDS011;6021;51.182;3.160;2023-03-25T06:05:17;16.90;;;3.60;;
11921;SDS011;6021;51.182;3.160;2023-03-25T06:07:50;15.03;;;3.87;;
11921;SDS011;6021;51.182;3.160;2023-03-25T06:10:29;15.73;;;4.23;;
11921;SDS011;6021;51.182;3.160;2023-03-25T06:13:02;16.97;;;3.70;;
11921;SDS011;6021;51.182;3.160;2023-03-25T06:15:41;18.30;;;4.20;;
11921;SDS011;6021;51.182;3.160;2023-03-25T06:18:21;15.83;;;4.13;;
11921;SDS011;6021;51.182;3.160;2023-03-25T06:20:56;16.87;;;3.80;;
11921;SDS011;6021;51.182;3.160;2023-03-25T06:23:29;16.87;;;4.10;;
11921;SDS011;6021;51.182;3.160;2023-03-25T06:26:01;19.27;;;4.07;;
11921;SDS011;6021;51.182;3.160;2023-03-25T06:28:40;16.50;;;3.77;;
11921;SDS011;6021;51.182;3.160;2023-03-25T06:31:16;15.77;;;3.80;;
11921;SDS011;6021;51.182;3.160;2023-03-25T06:33:48;19.87;;;4.37;;
11921;SDS011;6021;51.182;3.160;2023-03-25T06:36:21;13.73;;;2.90;;
11921;SDS011;6021;51.182;3.160;2023-03-25T06:39:00;12.93;;;3.20;;
11921;SDS011;6021;51.182;3.160;2023-03-25T06:41:39;17.33;;;2.83;;
11921;SDS011;6021;51.182;3.160;2023-03-25T06:44:22;18.67;;;4.00;;
11921;SDS011;6021;51.182;3.160;2023-03-25T06:46:52;22.10;;;4.67;;
11921;SDS011;6021;51.182;3.160;2023-03-25T06:49:24;16.37;;;4.03;;
11921;SDS011;6021;51.182;3.160;2023-03-25T06:51:59;20.50;;;4.50;;
11921;SDS011;6021;51.182;3.160;2023-03-25T06:54:40;18.83;;;4.10;;
11921;SDS011;6021;51.182;3.160;2023-03-25T06:57:20;19.03;;;4.40;;
11921;SDS011;6021;51.182;3.160;2023-03-25T07:00:02;19.70;;;4.23;;
11921;SDS011;6021;51.182;3.160;2023-03-25T07:02:35;17.57;;;3.70;;
11921;SDS011;6021;51.182;3.160;2023-03-25T07:05:05;22.57;;;4.60;;
11921;SDS011;6021;51.182;3.160;2023-03-25T07:07:34;17.30;;;4.23;;
11921;SDS011;6021;51.182;3.160;2023-03-25T07:10:02;20.07;;;4.57;;
11921;SDS011;6021;51.182;3.160;2023-03-25T07:12:32;17.20;;;4.23;;
11921;SDS011;6021;51.182;3.160;2023-03-25T07:15:01;23.03;;;4.70;;
11921;SDS011;6021;51.182;3.160;2023-03-25T07:17:30;17.70;;;4.10;;
11921;SDS011;6021;51.182;3.160;2023-03-25T07:19:58;19.77;;;4.47;;
11921;SDS011;6021;51.182;3.160;2023-03-25T07:22:26;17.60;;;4.20;;
11921;SDS011;6021;51.182;3.160;2023-03-25T07:24:56;18.00;;;4.30;;
11921;SDS011;6021;51.182;3.160;2023-03-25T07:27:24;22.13;;;4.80;;
11921;SDS011;6021;51.182;3.160;2023-03-25T07:29:53;17.30;;;3.93;;
11921;SDS011;6021;51.182;3.160;2023-03-25T07:32:21;22.23;;;4.73;;
11921;SDS011;6021;51.182;3.160;2023-03-25T07:34:50;17.63;;;4.40;;
11921;SDS011;6021;51.182;3.160;2023-03-25T07:37:18;19.57;;;4.47;;
11921;SDS011;6021;51.182;3.160;2023-03-25T07:39:47;18.90;;;4.70;;
11921;SDS011;6021;51.182;3.160;2023-03-25T07:42:15;18.20;;;4.03;;
11921;SDS011;6021;51.182;3.160;2023-03-25T07:44:44;17.30;;;4.10;;
11921;SDS011;6021;51.182;3.160;2023-03-25T07:47:12;25.47;;;5.20;;
11921;SDS011;6021;51.182;3.160;2023-03-25T07:49:40;22.03;;;5.07;;
11921;SDS011;6021;51.182;3.160;2023-03-25T07:52:10;18.67;;;4.63;;
11921;SDS011;6021;51.182;3.160;2023-03-25T07:57:17;20.17;;;4.30;;
11921;SDS011;6021;51.182;3.160;2023-03-25T07:59:46;14.87;;;3.20;;
11921;SDS011;6021;51.182;3.160;2023-03-25T08:02:14;20.17;;;4.67;;
11921;SDS011;6021;51.182;3.160;2023-03-25T08:04:42;18.47;;;4.43;;
11921;SDS011;6021;51.182;3.160;2023-03-25T08:07:12;19.17;;;4.20;;
11921;SDS011;6021;51.182;3.160;2023-03-25T08:09:40;20.37;;;4.10;;
11921;SDS011;6021;51.182;3.160;2023-03-25T08:12:09;17.07;;;4.20;;
11921;SDS011;6021;51.182;3.160;2023-03-25T08:14:37;15.70;;;4.17;;
11921;SDS011;6021;51.182;3.160;2023-03-25T08:17:09;18.63;;;4.67;;
11921;SDS011;6021;51.182;3.160;2023-03-25T08:19:51;16.87;;;4.00;;
11921;SDS011;6021;51.182;3.160;2023-03-25T08:22:20;19.77;;;4.80;;
11921;SDS011;6021;51.182;3.160;2023-03-25T08:24:53;19.03;;;4.50;;
11921;SDS011;6021;51.182;3.160;2023-03-25T08:27:20;17.30;;;4.57;;
11921;SDS011;6021;51.182;3.160;2023-03-25T08:29:48;20.70;;;4.63;;
11921;SDS011;6021;51.182;3.160;2023-03-25T08:32:23;21.13;;;4.37;;
11921;SDS011;6021;51.182;3.160;2023-03-25T08:34:53;18.43;;;4.27;;
11921;SDS011;6021;51.182;3.160;2023-03-25T08:37:22;15.57;;;2.97;;
11921;SDS011;6021;51.182;3.160;2023-03-25T08:39:51;17.70;;;3.60;;
11921;SDS011;6021;51.182;3.160;2023-03-25T08:42:21;17.67;;;3.07;;
11921;SDS011;6021;51.182;3.160;2023-03-25T08:44:50;18.50;;;4.30;;
11921;SDS011;6021;51.182;3.160;2023-03-25T08:47:18;16.43;;;4.00;;
11921;SDS011;6021;51.182;3.160;2023-03-25T08:49:46;21.33;;;4.20;;
11921;SDS011;6021;51.182;3.160;2023-03-25T08:52:15;16.67;;;4.23;;
11921;SDS011;6021;51.182;3.160;2023-03-25T08:54:43;15.30;;;3.77;;
11921;SDS011;6021;51.182;3.160;2023-03-25T08:57:12;18.13;;;4.23;;
11921;SDS011;6021;51.182;3.160;2023-03-25T08:59:40;16.60;;;4.10;;
11921;SDS011;6021;51.182;3.160;2023-03-25T09:02:10;17.43;;;3.97;;
11921;SDS011;6021;51.182;3.160;2023-03-25T09:04:39;21.37;;;4.10;;
11921;SDS011;6021;51.182;3.160;2023-03-25T09:07:08;16.43;;;4.00;;
11921;SDS011;6021;51.182;3.160;2023-03-25T09:09:36;13.60;;;4.20;;
11921;SDS011;6021;51.182;3.160;2023-03-25T09:12:05;15.77;;;3.60;;
11921;SDS011;6021;51.182;3.160;2023-03-25T09:14:35;15.10;;;3.00;;
11921;SDS011;6021;51.182;3.160;2023-03-25T09:17:03;13.67;;;3.93;;
11921;SDS011;6021;51.182;3.160;2023-03-25T09:19:36;14.80;;;2.93;;
11921;SDS011;6021;51.182;3.160;2023-03-25T09:22:05;15.13;;;3.83;;
11921;SDS011;6021;51.182;3.160;2023-03-25T09:24:36;15.13;;;3.63;;
11921;SDS011;6021;51.182;3.160;2023-03-25T09:27:05;14.20;;;3.80;;
11921;SDS011;6021;51.182;3.160;2023-03-25T09:29:33;16.10;;;3.70;;
11921;SDS011;6021;51.182;3.160;2023-03-25T09:32:02;17.13;;;4.00;;
11921;SDS011;6021;51.182;3.160;2023-03-25T09:34:30;16.97;;;3.80;;
11921;SDS011;6021;51.182;3.160;2023-03-25T09:37:00;13.73;;;2.80;;
11921;SDS011;6021;51.182;3.160;2023-03-25T09:39:39;19.67;;;4.43;;
11921;SDS011;6021;51.182;3.160;2023-03-25T09:56:13;16.33;;;3.37;;
11921;SDS011;6021;51.182;3.160;2023-03-25T10:01:22;15.00;;;3.90;;
11921;SDS011;6021;51.182;3.160;2023-03-25T10:09:59;16.03;;;3.03;;
11921;SDS011;6021;51.182;3.160;2023-03-25T10:18:16;17.20;;;3.70;;
11921;SDS011;6021;51.182;3.160;2023-03-25T10:26:12;15.07;;;3.67;;
11921;SDS011;6021;51.182;3.160;2023-03-25T10:28:48;16.83;;;4.20;;
11921;SDS011;6021;51.182;3.160;2023-03-25T10:31:19;14.97;;;3.97;;
11921;SDS011;6021;51.182;3.160;2023-03-25T10:33:54;18.67;;;4.60;;
11921;SDS011;6021;51.182;3.160;2023-03-25T10:36:36;16.83;;;3.67;;
11921;SDS011;6021;51.182;3.160;2023-03-25T10:39:04;15.40;;;3.47;;
11921;SDS011;6021;51.182;3.160;2023-03-25T10:41:34;18.43;;;4.27;;
11921;SDS011;6021;51.182;3.160;2023-03-25T10:44:08;16.77;;;4.00;;
11921;SDS011;6021;51.182;3.160;2023-03-25T10:46:51;21.23;;;4.30;;
11921;SDS011;6021;51.182;3.160;2023-03-25T10:49:25;17.70;;;4.00;;
11921;SDS011;6021;51.182;3.160;2023-03-25T10:51:55;16.53;;;3.60;;
11921;SDS011;6021;51.182;3.160;2023-03-25T10:54:33;17.50;;;3.90;;
11921;SDS011;6021;51.182;3.160;2023-03-25T10:57:27;17.87;;;4.17;;
11921;SDS011;6021;51.182;3.160;2023-03-25T11:00:20;15.03;;;4.00;;
11921;SDS011;6021;51.182;3.160;2023-03-25T11:02:46;18.13;;;3.87;;
11921;SDS011;6021;51.182;3.160;2023-03-25T11:05:23;18.90;;;4.60;;
11921;SDS011;6021;51.182;3.160;2023-03-25T11:07:58;17.43;;;4.20;;
11921;SDS011;6021;51.182;3.160;2023-03-25T11:10:30;17.55;;;3.52;;
11921;SDS011;6021;51.182;3.160;2023-03-25T11:13:09;13.33;;;3.20;;
11921;SDS011;6021;51.182;3.160;2023-03-25T11:15:35;13.53;;;3.03;;
11921;SDS011;6021;51.182;3.160;2023-03-25T11:18:18;17.40;;;4.40;;
11921;SDS011;6021;51.182;3.160;2023-03-25T11:20:47;17.40;;;4.63;;
11921;SDS011;6021;51.182;3.160;2023-03-25T11:23:22;15.70;;;4.30;;
11921;SDS011;6021;51.182;3.160;2023-03-25T11:26:12;17.30;;;3.40;;
11921;SDS011;6021;51.182;3.160;2023-03-25T11:28:45;12.10;;;2.57;;
11921;SDS011;6021;51.182;3.160;2023-03-25T11:31:20;13.63;;;3.33;;
11921;SDS011;6021;51.182;3.160;2023-03-25T11:34:05;14.97;;;3.07;;
11921;SDS011;6021;51.182;3.160;2023-03-25T11:36:47;10.73;;;3.00;;
11921;SDS011;6021;51.182;3.160;2023-03-25T11:39:47;15.33;;;3.57;;
11921;SDS011;6021;51.182;3.160;2023-03-25T11:44:53;16.27;;;2.97;;
11921;SDS011;6021;51.182;3.160;2023-03-25T11:50:23;13.30;;;2.97;;
11921;SDS011;6021;51.182;3.160;2023-03-25T11:52:59;14.70;;;3.27;;
11921;SDS011;6021;51.182;3.160;2023-03-25T11:55:40;18.23;;;3.40;;
11921;SDS011;6021;51.182;3.160;2023-03-25T11:58:20;15.03;;;3.30;;
11921;SDS011;6021;51.182;3.160;2023-03-25T12:00:59;15.63;;;2.90;;
11921;SDS011;6021;51.182;3.160;2023-03-25T12:03:28;12.73;;;2.47;;
11921;SDS011;6021;51.182;3.160;2023-03-25T12:06:03;15.80;;;3.13;;
11921;SDS011;6021;51.182;3.160;2023-03-25T12:08:48;19.23;;;3.57;;
11921;SDS011;6021;51.182;3.160;2023-03-25T12:11:27;16.30;;;3.20;;
11921;SDS011;6021;51.182;3.160;2023-03-25T12:17:05;15.13;;;3.13;;
11921;SDS011;6021;51.182;3.160;2023-03-25T12:34:08;12.80;;;3.23;;
11921;SDS011;6021;51.182;3.160;2023-03-25T12:39:48;13.63;;;3.07;;
11921;SDS011;6021;51.182;3.160;2023-03-25T13:05:20;12.73;;;3.40;;
11921;SDS011;6021;51.182;3.160;2023-03-25T13:07:58;12.20;;;3.20;;
11921;SDS011;6021;51.182;3.160;2023-03-25T13:10:37;12.27;;;3.13;;
11921;SDS011;6021;51.182;3.160;2023-03-25T13:13:16;10.83;;;2.80;;
11921;SDS011;6021;51.182;3.160;2023-03-25T13:21:20;12.93;;;3.53;;
11921;SDS011;6021;51.182;3.160;2023-03-25T13:23:53;8.40;;;2.33;;
11921;SDS011;6021;51.182;3.160;2023-03-25T13:26:23;13.83;;;2.80;;
11921;SDS011;6021;51.182;3.160;2023-03-25T13:31:55;12.43;;;2.70;;
11921;SDS011;6021;51.182;3.160;2023-03-25T13:34:35;16.50;;;3.23;;
11921;SDS011;6021;51.182;3.160;2023-03-25T13:45:50;11.30;;;3.07;;
11921;SDS011;6021;51.182;3.160;2023-03-25T13:48:17;11.57;;;2.53;;
11921;SDS011;6021;51.182;3.160;2023-03-25T13:50:48;12.23;;;3.00;;
11921;SDS011;6021;51.182;3.160;2023-03-25T13:53:28;11.27;;;2.50;;
11921;SDS011;6021;51.182;3.160;2023-03-25T13:56:10;9.50;;;2.33;;
11921;SDS011;6021;51.182;3.160;2023-03-25T14:01:26;11.07;;;2.80;;
11921;SDS011;6021;51.182;3.160;2023-03-25T14:07:21;12.50;;;3.07;;
11921;SDS011;6021;51.182;3.160;2023-03-25T14:12:38;12.07;;;2.77;;
11921;SDS011;6021;51.182;3.160;2023-03-25T14:15:25;13.67;;;3.10;;
11921;SDS011;6021;51.182;3.160;2023-03-25T14:17:55;14.03;;;3.07;;
11921;SDS011;6021;51.182;3.160;2023-03-25T14:20:26;9.17;;;2.30;;
11921;SDS011;6021;51.182;3.160;2023-03-25T14:22:57;10.13;;;2.40;;
11921;SDS011;6021;51.182;3.160;2023-03-25T14:25:41;13.80;;;3.00;;
11921;SDS011;6021;51.182;3.160;2023-03-25T14:28:14;9.50;;;2.60;;
11921;SDS011;6021;51.182;3.160;2023-03-25T14:31:08;11.93;;;3.07;;
11921;SDS011;6021;51.182;3.160;2023-03-25T14:39:09;12.83;;;2.37;;
11921;SDS011;6021;51.182;3.160;2023-03-25T14:44:41;13.63;;;2.83;;
11921;SDS011;6021;51.182;3.160;2023-03-25T14:50:01;12.00;;;2.47;;
11921;SDS011;6021;51.182;3.160;2023-03-25T14:55:26;13.80;;;2.47;;
11921;SDS011;6021;51.182;3.160;2023-03-25T14:57:57;13.97;;;2.83;;
11921;SDS011;6021;51.182;3.160;2023-03-25T15:00:34;9.97;;;2.60;;
11921;SDS011;6021;51.182;3.160;2023-03-25T15:03:14;14.70;;;3.50;;
11921;SDS011;6021;51.182;3.160;2023-03-25T15:05:39;11.60;;;2.80;;
11921;SDS011;6021;51.182;3.160;2023-03-25T15:10:40;13.97;;;3.10;;
11921;SDS011;6021;51.182;3.160;2023-03-25T15:13:14;13.37;;;3.20;;
11921;SDS011;6021;51.182;3.160;2023-03-25T15:26:28;11.80;;;3.00;;
11921;SDS011;6021;51.182;3.160;2023-03-25T15:32:25;12.37;;;2.77;;
11921;SDS011;6021;51.182;3.160;2023-03-25T15:40:40;14.20;;;3.50;;
11921;SDS011;6021;51.182;3.160;2023-03-25T15:54:50;12.97;;;3.00;;
11921;SDS011;6021;51.182;3.160;2023-03-25T15:57:37;18.33;;;3.60;;
11921;SDS011;6021;51.182;3.160;2023-03-25T16:00:19;15.83;;;3.93;;
11921;SDS011;6021;51.182;3.160;2023-03-25T16:05:44;12.87;;;3.17;;
11921;SDS011;6021;51.182;3.160;2023-03-25T16:08:30;14.97;;;3.47;;
11921;SDS011;6021;51.182;3.160;2023-03-25T16:14:01;15.23;;;3.10;;
11921;SDS011;6021;51.182;3.160;2023-03-25T16:16:35;17.53;;;3.30;;
11921;SDS011;6021;51.182;3.160;2023-03-25T16:19:08;14.67;;;3.13;;
11921;SDS011;6021;51.182;3.160;2023-03-25T16:21:37;13.07;;;2.80;;
11921;SDS011;6021;51.182;3.160;2023-03-25T16:24:06;14.17;;;2.93;;
11921;SDS011;6021;51.182;3.160;2023-03-25T16:26:43;18.03;;;3.53;;
11921;SDS011;6021;51.182;3.160;2023-03-25T16:29:15;13.07;;;2.53;;
11921;SDS011;6021;51.182;3.160;2023-03-25T16:31:57;16.87;;;3.17;;
11921;SDS011;6021;51.182;3.160;2023-03-25T16:34:31;17.53;;;4.43;;
11921;SDS011;6021;51.182;3.160;2023-03-25T16:37:03;14.50;;;3.23;;
11921;SDS011;6021;51.182;3.160;2023-03-25T16:39:34;17.77;;;3.40;;
11921;SDS011;6021;51.182;3.160;2023-03-25T16:42:04;17.43;;;2.90;;
11921;SDS011;6021;51.182;3.160;2023-03-25T16:44:36;19.20;;;4.70;;
11921;SDS011;6021;51.182;3.160;2023-03-25T16:47:06;17.47;;;3.57;;
11921;SDS011;6021;51.182;3.160;2023-03-25T16:49:38;18.03;;;4.20;;
11921;SDS011;6021;51.182;3.160;2023-03-25T16:52:11;18.13;;;3.70;;
11921;SDS011;6021;51.182;3.160;2023-03-25T16:55:06;21.63;;;4.60;;
11921;SDS011;6021;51.182;3.160;2023-03-25T16:57:16;23.73;;;5.07;;
11921;SDS011;6021;51.182;3.160;2023-03-25T16:59:53;20.77;;;5.07;;
11921;SDS011;6021;51.182;3.160;2023-03-25T17:02:26;18.97;;;4.90;;
11921;SDS011;6021;51.182;3.160;2023-03-25T17:05:30;22.63;;;4.97;;
11921;SDS011;6021;51.182;3.160;2023-03-25T17:07:46;20.20;;;4.90;;
11921;SDS011;6021;51.182;3.160;2023-03-25T17:10:18;22.13;;;5.90;;
11921;SDS011;6021;51.182;3.160;2023-03-25T17:12:58;21.63;;;4.87;;
11921;SDS011;6021;51.182;3.160;2023-03-25T17:15:48;21.80;;;5.13;;
11921;SDS011;6021;51.182;3.160;2023-03-25T17:18:17;22.30;;;5.10;;
11921;SDS011;6021;51.182;3.160;2023-03-25T17:20:48;16.13;;;4.07;;
11921;SDS011;6021;51.182;3.160;2023-03-25T17:23:27;18.63;;;4.37;;
11921;SDS011;6021;51.182;3.160;2023-03-25T17:26:12;21.07;;;4.40;;
11921;SDS011;6021;51.182;3.160;2023-03-25T17:28:54;22.33;;;4.53;;
11921;SDS011;6021;51.182;3.160;2023-03-25T17:34:18;27.83;;;5.77;;
11921;SDS011;6021;51.182;3.160;2023-03-25T17:37:00;26.90;;;6.13;;
11921;SDS011;6021;51.182;3.160;2023-03-25T17:39:28;25.03;;;5.83;;
11921;SDS011;6021;51.182;3.160;2023-03-25T17:42:12;27.30;;;5.60;;
11921;SDS011;6021;51.182;3.160;2023-03-25T17:44:40;23.53;;;5.80;;
11921;SDS011;6021;51.182;3.160;2023-03-25T17:47:15;27.87;;;5.60;;
11921;SDS011;6021;51.182;3.160;2023-03-25T17:49:52;23.77;;;5.80;;
11921;SDS011;6021;51.182;3.160;2023-03-25T17:52:26;25.10;;;5.70;;
11921;SDS011;6021;51.182;3.160;2023-03-25T17:54:56;26.87;;;6.20;;
11921;SDS011;6021;51.182;3.160;2023-03-25T17:57:24;21.63;;;5.40;;
11921;SDS011;6021;51.182;3.160;2023-03-25T17:59:53;22.60;;;5.13;;
11921;SDS011;6021;51.182;3.160;2023-03-25T18:02:22;24.90;;;5.73;;
11921;SDS011;6021;51.182;3.160;2023-03-25T18:04:50;21.13;;;5.03;;
11921;SDS011;6021;51.182;3.160;2023-03-25T18:07:19;25.37;;;5.83;;
11921;SDS011;6021;51.182;3.160;2023-03-25T18:09:48;23.80;;;5.70;;
11921;SDS011;6021;51.182;3.160;2023-03-25T18:12:18;26.63;;;4.30;;
11921;SDS011;6021;51.182;3.160;2023-03-25T18:14:46;25.37;;;5.50;;
11921;SDS011;6021;51.182;3.160;2023-03-25T18:17:15;27.27;;;6.20;;
11921;SDS011;6021;51.182;3.160;2023-03-25T18:19:43;26.13;;;6.23;;
11921;SDS011;6021;51.182;3.160;2023-03-25T18:22:12;23.07;;;5.40;;
11921;SDS011;6021;51.182;3.160;2023-03-25T18:24:40;22.67;;;5.63;;
11921;SDS011;6021;51.182;3.160;2023-03-25T18:27:09;23.63;;;5.43;;
11921;SDS011;6021;51.182;3.160;2023-03-25T18:29:39;24.07;;;6.17;;
11921;SDS011;6021;51.182;3.160;2023-03-25T18:32:08;22.03;;;5.43;;
11921;SDS011;6021;51.182;3.160;2023-03-25T18:34:36;25.67;;;5.03;;
11921;SDS011;6021;51.182;3.160;2023-03-25T18:37:04;22.47;;;5.43;;
11921;SDS011;6021;51.182;3.160;2023-03-25T18:39:33;21.93;;;5.20;;
11921;SDS011;6021;51.182;3.160;2023-03-25T18:42:01;29.33;;;6.10;;
11921;SDS011;6021;51.182;3.160;2023-03-25T18:44:30;23.13;;;4.53;;
11921;SDS011;6021;51.182;3.160;2023-03-25T18:46:59;25.43;;;5.90;;
11921;SDS011;6021;51.182;3.160;2023-03-25T18:49:27;25.33;;;5.97;;
11921;SDS011;6021;51.182;3.160;2023-03-25T18:51:56;26.27;;;5.77;;
11921;SDS011;6021;51.182;3.160;2023-03-25T18:54:24;27.33;;;6.30;;